Wales, AK

5:11 AM AKDT on July 30, 2016 (GMT -0800)
Tin City LRRS | | Change Station

Elev 272 ft 65.56 °N, 167.92 °W | Updated 16 minutes ago

Mostly Cloudy
Mostly Cloudy
40 °F
Feels Like 31 °F
N
18
Wind Variable Wind from NE

Today
High -- | Low -- °F
--% Chance of Precip.
Yesterday
High -- | Low -- °F
Precip. -- in
Pressure 29.93 in
Visibility 10.0 miles
Clouds Mostly Cloudy 1700 ft
Windchill 31 °F
Dew Point 35 °F
Humidity 83%
Rainfall 0.00 in
Snow Depth Not available.
5:58 AM 0:34 AM
Waning Crescent, 13% visible
METAR PATC 301255Z AUTO 04016KT 10SM BKN017 04/02 A2992 RMK AO2 SLP133 T00430016
Pressure 29.93 in
Visibility 10.0 miles
Clouds Mostly Cloudy 1700 ft
Windchill 31 °F
Dew Point 35 °F
Humidity 83%
Rainfall 0.00 in
Snow Depth Not available.
5:58 AM 0:34 AM
Waning Crescent, 13% visible
METAR PATC 301255Z AUTO 04016KT 10SM BKN017 04/02 A2992 RMK AO2 SLP133 T00430016

10-Day Weather Forecast

Almanac

Astronomy

Jul. 30, 2016 Rise Set
Actual Time
Civil Twilight
Nautical Twilight
Astronomical Twilight
Moon
Length of Visible Light
Length of Day
Tomorrow will be .
, % of the Moon is Illuminated

Today's Extremes

State Highs State Lows

Community

WunderPhotos

Upload Photos

1,928,555 photos uploaded!

WunderBlog® & News

Nearby

Air Quality

  Air Quality AQ Index Pollutant
Not available.

Snow Depth

Station Depth Elevation

Earthquake Activity

City Distance Mag. Time & Date
Minimum magnitude displayed is 2.5.

Coastal Water Temperatures

Place Temperature

Stations

Nearby Weather Stations

Station Location Temp. Windchill Dew Point Humidity Wind Precip. Elev Updated Type
                   

Watches & Warnings

There are currently no watches in effect.